sensor_id;sensor_type;location;lat;lon;timestamp;temperature;humidity
52125;DHT22;38119;52.710;6.398;2023-04-03T00:01:21;4.90;99.90
52125;DHT22;38119;52.710;6.398;2023-04-03T00:03:46;4.80;99.90
52125;DHT22;38119;52.710;6.398;2023-04-03T00:06:12;4.80;99.90
52125;DHT22;38119;52.710;6.398;2023-04-03T00:08:38;4.80;99.90
52125;DHT22;38119;52.710;6.398;2023-04-03T00:11:05;4.80;99.90
52125;DHT22;38119;52.710;6.398;2023-04-03T00:13:31;4.80;99.90
52125;DHT22;38119;52.710;6.398;2023-04-03T00:15:57;4.70;99.90
52125;DHT22;38119;52.710;6.398;2023-04-03T00:18:22;4.70;99.90
52125;DHT22;38119;52.710;6.398;2023-04-03T00:20:48;4.70;99.90
52125;DHT22;38119;52.710;6.398;2023-04-03T00:23:14;4.70;99.90
52125;DHT22;38119;52.710;6.398;2023-04-03T00:25:41;4.70;99.90
52125;DHT22;38119;52.710;6.398;2023-04-03T00:28:06;4.70;99.90
52125;DHT22;38119;52.710;6.398;2023-04-03T00:30:32;4.60;99.90
52125;DHT22;38119;52.710;6.398;2023-04-03T00:32:58;4.60;99.90
52125;DHT22;38119;52.710;6.398;2023-04-03T00:35:24;4.60;99.90
52125;DHT22;38119;52.710;6.398;2023-04-03T00:37:54;4.50;99.90
52125;DHT22;38119;52.710;6.398;2023-04-03T00:40:21;4.50;99.90
52125;DHT22;38119;52.710;6.398;2023-04-03T00:42:49;4.50;99.90
52125;DHT22;38119;52.710;6.398;2023-04-03T00:45:38;4.50;99.90
52125;DHT22;38119;52.710;6.398;2023-04-03T00:48:06;4.40;99.90
52125;DHT22;38119;52.710;6.398;2023-04-03T00:50:36;4.50;99.90
52125;DHT22;38119;52.710;6.398;2023-04-03T00:53:04;4.40;99.90
52125;DHT22;38119;52.710;6.398;2023-04-03T00:55:31;4.40;99.90
52125;DHT22;38119;52.710;6.398;2023-04-03T00:57:57;4.40;99.90
52125;DHT22;38119;52.710;6.398;2023-04-03T01:00:24;4.40;99.90
52125;DHT22;38119;52.710;6.398;2023-04-03T01:02:51;4.30;99.90
52125;DHT22;38119;52.710;6.398;2023-04-03T01:05:17;4.30;99.90
52125;DHT22;38119;52.710;6.398;2023-04-03T01:07:44;4.30;99.90
52125;DHT22;38119;52.710;6.398;2023-04-03T01:10:13;4.20;99.90
52125;DHT22;38119;52.710;6.398;2023-04-03T01:12:42;4.20;99.90
52125;DHT22;38119;52.710;6.398;2023-04-03T01:15:11;4.20;99.90
52125;DHT22;38119;52.710;6.398;2023-04-03T01:17:41;4.20;99.90
52125;DHT22;38119;52.710;6.398;2023-04-03T01:25:46;4.10;99.90
52125;DHT22;38119;52.710;6.398;2023-04-03T01:28:19;4.10;99.90
52125;DHT22;38119;52.710;6.398;2023-04-03T01:33:33;4.00;99.90
52125;DHT22;38119;52.710;6.398;2023-04-03T01:35:58;4.00;99.90
52125;DHT22;38119;52.710;6.398;2023-04-03T01:38:24;4.00;99.90
52125;DHT22;38119;52.710;6.398;2023-04-03T01:40:50;4.00;99.90
52125;DHT22;38119;52.710;6.398;2023-04-03T01:43:16;4.00;99.90
52125;DHT22;38119;52.710;6.398;2023-04-03T01:45:42;4.00;99.90
52125;DHT22;38119;52.710;6.398;2023-04-03T01:48:07;4.00;99.90
52125;DHT22;38119;52.710;6.398;2023-04-03T01:50:33;3.90;99.90
52125;DHT22;38119;52.710;6.398;2023-04-03T01:52:59;3.90;99.90
52125;DHT22;38119;52.710;6.398;2023-04-03T01:55:25;3.00;99.90
52125;DHT22;38119;52.710;6.398;2023-04-03T01:57:50;3.80;99.90
52125;DHT22;38119;52.710;6.398;2023-04-03T02:00:16;3.80;99.90
52125;DHT22;38119;52.710;6.398;2023-04-03T02:02:41;3.80;99.90
52125;DHT22;38119;52.710;6.398;2023-04-03T02:05:07;3.80;99.90
52125;DHT22;38119;52.710;6.398;2023-04-03T02:07:33;3.80;99.90
52125;DHT22;38119;52.710;6.398;2023-04-03T02:09:58;3.70;99.90
52125;DHT22;38119;52.710;6.398;2023-04-03T02:12:24;3.70;99.90
52125;DHT22;38119;52.710;6.398;2023-04-03T02:14:50;3.70;99.90
52125;DHT22;38119;52.710;6.398;2023-04-03T02:17:15;3.70;99.90
52125;DHT22;38119;52.710;6.398;2023-04-03T02:19:41;3.70;99.90
52125;DHT22;38119;52.710;6.398;2023-04-03T02:22:07;3.60;99.90
52125;DHT22;38119;52.710;6.398;2023-04-03T02:24:32;3.60;99.90
52125;DHT22;38119;52.710;6.398;2023-04-03T02:26:58;3.60;99.90
52125;DHT22;38119;52.710;6.398;2023-04-03T02:29:24;3.60;99.90
52125;DHT22;38119;52.710;6.398;2023-04-03T02:31:50;3.60;99.90
52125;DHT22;38119;52.710;6.398;2023-04-03T02:34:16;3.60;99.90
52125;DHT22;38119;52.710;6.398;2023-04-03T02:36:42;3.60;99.90
52125;DHT22;38119;52.710;6.398;2023-04-03T02:39:08;3.50;99.90
52125;DHT22;38119;52.710;6.398;2023-04-03T02:41:33;3.50;99.90
52125;DHT22;38119;52.710;6.398;2023-04-03T02:44:05;3.50;99.90
52125;DHT22;38119;52.710;6.398;2023-04-03T02:46:31;3.50;99.90
52125;DHT22;38119;52.710;6.398;2023-04-03T02:48:57;3.40;99.90
52125;DHT22;38119;52.710;6.398;2023-04-03T02:51:23;3.50;99.90
52125;DHT22;38119;52.710;6.398;2023-04-03T02:53:49;3.40;99.90
52125;DHT22;38119;52.710;6.398;2023-04-03T02:56:16;3.40;99.90
52125;DHT22;38119;52.710;6.398;2023-04-03T02:58:42;3.40;99.90
52125;DHT22;38119;52.710;6.398;2023-04-03T03:01:08;3.40;99.90
52125;DHT22;38119;52.710;6.398;2023-04-03T03:03:34;3.40;99.90
52125;DHT22;38119;52.710;6.398;2023-04-03T03:06:10;3.40;99.90
52125;DHT22;38119;52.710;6.398;2023-04-03T03:08:36;3.40;99.90
52125;DHT22;38119;52.710;6.398;2023-04-03T03:11:03;3.40;99.90
52125;DHT22;38119;52.710;6.398;2023-04-03T03:13:29;3.30;99.90
52125;DHT22;38119;52.710;6.398;2023-04-03T03:15:55;3.30;99.90
52125;DHT22;38119;52.710;6.398;2023-04-03T03:18:20;3.30;99.90
52125;DHT22;38119;52.710;6.398;2023-04-03T03:20:46;3.30;99.90
52125;DHT22;38119;52.710;6.398;2023-04-03T03:23:12;3.30;99.90
52125;DHT22;38119;52.710;6.398;2023-04-03T03:25:40;3.30;99.90
52125;DHT22;38119;52.710;6.398;2023-04-03T03:28:07;3.20;99.90
52125;DHT22;38119;52.710;6.398;2023-04-03T03:30:33;3.20;99.90
52125;DHT22;38119;52.710;6.398;2023-04-03T03:32:58;3.20;99.90
52125;DHT22;38119;52.710;6.398;2023-04-03T03:35:24;3.20;99.90
52125;DHT22;38119;52.710;6.398;2023-04-03T03:37:50;3.10;99.90
52125;DHT22;38119;52.710;6.398;2023-04-03T03:40:16;3.10;99.90
52125;DHT22;38119;52.710;6.398;2023-04-03T03:42:41;3.10;99.90
52125;DHT22;38119;52.710;6.398;2023-04-03T03:45:07;3.10;99.90
52125;DHT22;38119;52.710;6.398;2023-04-03T03:47:33;3.00;99.90
52125;DHT22;38119;52.710;6.398;2023-04-03T03:49:59;3.00;99.90
52125;DHT22;38119;52.710;6.398;2023-04-03T03:52:24;3.00;99.90
52125;DHT22;38119;52.710;6.398;2023-04-03T03:54:50;3.00;99.90
52125;DHT22;38119;52.710;6.398;2023-04-03T03:57:16;3.00;99.90
52125;DHT22;38119;52.710;6.398;2023-04-03T03:59:42;3.00;99.90
52125;DHT22;38119;52.710;6.398;2023-04-03T04:02:09;3.00;99.90
52125;DHT22;38119;52.710;6.398;2023-04-03T04:04:36;2.90;99.90
52125;DHT22;38119;52.710;6.398;2023-04-03T04:07:02;2.90;99.90
52125;DHT22;38119;52.710;6.398;2023-04-03T04:09:28;2.90;99.90
52125;DHT22;38119;52.710;6.398;2023-04-03T04:11:53;2.80;99.90
52125;DHT22;38119;52.710;6.398;2023-04-03T04:14:19;2.80;99.90
52125;DHT22;38119;52.710;6.398;2023-04-03T04:16:46;2.80;99.90
52125;DHT22;38119;52.710;6.398;2023-04-03T04:19:12;2.80;99.90
52125;DHT22;38119;52.710;6.398;2023-04-03T04:21:38;2.80;99.90
52125;DHT22;38119;52.710;6.398;2023-04-03T04:24:04;2.70;99.90
52125;DHT22;38119;52.710;6.398;2023-04-03T04:26:29;2.70;99.90
52125;DHT22;38119;52.710;6.398;2023-04-03T04:28:55;2.70;99.90
52125;DHT22;38119;52.710;6.398;2023-04-03T04:31:20;2.70;99.90
52125;DHT22;38119;52.710;6.398;2023-04-03T04:33:46;2.70;99.90
52125;DHT22;38119;52.710;6.398;2023-04-03T04:36:11;2.70;99.90
52125;DHT22;38119;52.710;6.398;2023-04-03T04:38:37;2.70;99.90
52125;DHT22;38119;52.710;6.398;2023-04-03T04:41:03;2.60;99.90
52125;DHT22;38119;52.710;6.398;2023-04-03T04:43:29;2.60;99.90
52125;DHT22;38119;52.710;6.398;2023-04-03T04:48:27;2.60;99.90
52125;DHT22;38119;52.710;6.398;2023-04-03T04:50:53;2.60;99.90
52125;DHT22;38119;52.710;6.398;2023-04-03T04:53:18;2.60;99.90
52125;DHT22;38119;52.710;6.398;2023-04-03T04:55:44;2.60;99.90
52125;DHT22;38119;52.710;6.398;2023-04-03T04:58:09;2.60;99.90
52125;DHT22;38119;52.710;6.398;2023-04-03T05:00:35;2.50;99.90
52125;DHT22;38119;52.710;6.398;2023-04-03T05:03:01;2.50;99.90
52125;DHT22;38119;52.710;6.398;2023-04-03T05:05:26;2.50;99.90
52125;DHT22;38119;52.710;6.398;2023-04-03T05:07:52;2.50;99.90
52125;DHT22;38119;52.710;6.398;2023-04-03T05:10:17;2.50;99.90
52125;DHT22;38119;52.710;6.398;2023-04-03T05:12:43;2.50;99.90
52125;DHT22;38119;52.710;6.398;2023-04-03T05:15:09;2.50;99.90
52125;DHT22;38119;52.710;6.398;2023-04-03T05:17:34;2.40;99.90
52125;DHT22;38119;52.710;6.398;2023-04-03T05:20:00;2.40;99.90
52125;DHT22;38119;52.710;6.398;2023-04-03T05:22:25;2.40;99.90
52125;DHT22;38119;52.710;6.398;2023-04-03T05:24:51;2.40;99.90
52125;DHT22;38119;52.710;6.398;2023-04-03T05:27:16;2.40;99.90
52125;DHT22;38119;52.710;6.398;2023-04-03T05:29:42;2.30;99.90
52125;DHT22;38119;52.710;6.398;2023-04-03T05:32:10;2.40;99.90
52125;DHT22;38119;52.710;6.398;2023-04-03T05:34:36;2.40;99.90
52125;DHT22;38119;52.710;6.398;2023-04-03T05:37:01;2.30;99.90
52125;DHT22;38119;52.710;6.398;2023-04-03T05:39:28;2.30;99.90
52125;DHT22;38119;52.710;6.398;2023-04-03T05:41:54;2.30;99.90
52125;DHT22;38119;52.710;6.398;2023-04-03T05:44:19;2.30;99.90
52125;DHT22;38119;52.710;6.398;2023-04-03T05:46:45;2.30;99.90
52125;DHT22;38119;52.710;6.398;2023-04-03T05:49:10;2.30;99.90
52125;DHT22;38119;52.710;6.398;2023-04-03T05:51:37;2.30;99.90
52125;DHT22;38119;52.710;6.398;2023-04-03T05:54:09;2.30;99.90
52125;DHT22;38119;52.710;6.398;2023-04-03T05:56:36;2.30;99.90
52125;DHT22;38119;52.710;6.398;2023-04-03T05:59:02;2.30;99.90
52125;DHT22;38119;52.710;6.398;2023-04-03T06:01:27;2.30;99.90
52125;DHT22;38119;52.710;6.398;2023-04-03T06:03:53;2.30;99.90
52125;DHT22;38119;52.710;6.398;2023-04-03T06:06:19;2.30;99.90
52125;DHT22;38119;52.710;6.398;2023-04-03T06:08:45;2.30;99.90
52125;DHT22;38119;52.710;6.398;2023-04-03T06:11:11;2.30;99.90
52125;DHT22;38119;52.710;6.398;2023-04-03T06:13:37;2.30;99.90
52125;DHT22;38119;52.710;6.398;2023-04-03T06:16:04;2.40;99.90
52125;DHT22;38119;52.710;6.398;2023-04-03T06:18:29;2.40;99.90
52125;DHT22;38119;52.710;6.398;2023-04-03T06:20:55;2.40;99.90
52125;DHT22;38119;52.710;6.398;2023-04-03T06:23:21;2.40;99.90
52125;DHT22;38119;52.710;6.398;2023-04-03T06:25:46;2.40;99.90
52125;DHT22;38119;52.710;6.398;2023-04-03T06:28:12;2.40;99.90
52125;DHT22;38119;52.710;6.398;2023-04-03T06:30:38;2.50;99.90
52125;DHT22;38119;52.710;6.398;2023-04-03T06:33:03;2.50;99.90
52125;DHT22;38119;52.710;6.398;2023-04-03T06:35:29;2.50;99.90
52125;DHT22;38119;52.710;6.398;2023-04-03T06:37:56;2.50;99.90
52125;DHT22;38119;52.710;6.398;2023-04-03T06:40:23;2.50;99.90
52125;DHT22;38119;52.710;6.398;2023-04-03T06:42:49;2.50;99.90
52125;DHT22;38119;52.710;6.398;2023-04-03T06:45:15;2.60;99.90
52125;DHT22;38119;52.710;6.398;2023-04-03T06:47:41;2.60;99.90
52125;DHT22;38119;52.710;6.398;2023-04-03T06:50:07;2.60;99.90
52125;DHT22;38119;52.710;6.398;2023-04-03T06:52:34;2.60;99.90
52125;DHT22;38119;52.710;6.398;2023-04-03T06:54:59;2.60;99.90
52125;DHT22;38119;52.710;6.398;2023-04-03T06:57:25;2.70;99.90
52125;DHT22;38119;52.710;6.398;2023-04-03T06:59:51;2.70;99.90
52125;DHT22;38119;52.710;6.398;2023-04-03T07:02:17;2.70;99.90
52125;DHT22;38119;52.710;6.398;2023-04-03T07:04:42;2.80;99.90
52125;DHT22;38119;52.710;6.398;2023-04-03T07:07:08;2.80;99.90
52125;DHT22;38119;52.710;6.398;2023-04-03T07:09:34;2.80;99.90
52125;DHT22;38119;52.710;6.398;2023-04-03T07:12:00;2.90;99.90
52125;DHT22;38119;52.710;6.398;2023-04-03T07:14:25;2.90;99.90
52125;DHT22;38119;52.710;6.398;2023-04-03T07:16:51;2.90;99.90
52125;DHT22;38119;52.710;6.398;2023-04-03T07:19:17;2.90;99.90
52125;DHT22;38119;52.710;6.398;2023-04-03T07:21:45;2.90;99.90
52125;DHT22;38119;52.710;6.398;2023-04-03T07:24:11;3.00;99.90
52125;DHT22;38119;52.710;6.398;2023-04-03T07:26:37;3.00;99.90
52125;DHT22;38119;52.710;6.398;2023-04-03T07:29:05;3.00;99.90
52125;DHT22;38119;52.710;6.398;2023-04-03T07:31:31;3.10;99.90
52125;DHT22;38119;52.710;6.398;2023-04-03T07:33:57;3.20;99.90
52125;DHT22;38119;52.710;6.398;2023-04-03T07:36:23;3.10;99.90
52125;DHT22;38119;52.710;6.398;2023-04-03T07:38:48;3.10;99.90
52125;DHT22;38119;52.710;6.398;2023-04-03T07:41:16;3.20;99.90
52125;DHT22;38119;52.710;6.398;2023-04-03T07:43:43;3.20;99.90
52125;DHT22;38119;52.710;6.398;2023-04-03T07:46:09;3.20;99.90
52125;DHT22;38119;52.710;6.398;2023-04-03T07:48:34;3.30;99.90
52125;DHT22;38119;52.710;6.398;2023-04-03T07:51:01;3.30;99.90
52125;DHT22;38119;52.710;6.398;2023-04-03T07:53:28;3.30;99.90
52125;DHT22;38119;52.710;6.398;2023-04-03T07:55:53;3.40;99.90
52125;DHT22;38119;52.710;6.398;2023-04-03T07:58:21;3.40;99.90
52125;DHT22;38119;52.710;6.398;2023-04-03T08:00:47;3.40;99.90
52125;DHT22;38119;52.710;6.398;2023-04-03T08:03:14;3.40;99.90
52125;DHT22;38119;52.710;6.398;2023-04-03T08:05:43;3.40;99.90
52125;DHT22;38119;52.710;6.398;2023-04-03T08:08:10;3.50;99.90
52125;DHT22;38119;52.710;6.398;2023-04-03T08:10:37;3.60;99.90
52125;DHT22;38119;52.710;6.398;2023-04-03T08:13:04;3.60;99.90
52125;DHT22;38119;52.710;6.398;2023-04-03T08:15:30;3.60;99.90
52125;DHT22;38119;52.710;6.398;2023-04-03T08:17:57;3.60;99.90
52125;DHT22;38119;52.710;6.398;2023-04-03T08:20:23;3.70;99.90
52125;DHT22;38119;52.710;6.398;2023-04-03T08:22:48;3.70;99.90
52125;DHT22;38119;52.710;6.398;2023-04-03T08:25:14;3.80;99.90
52125;DHT22;38119;52.710;6.398;2023-04-03T08:27:40;3.80;99.90
52125;DHT22;38119;52.710;6.398;2023-04-03T08:30:06;3.80;99.90
52125;DHT22;38119;52.710;6.398;2023-04-03T08:32:33;3.90;99.90
52125;DHT22;38119;52.710;6.398;2023-04-03T08:34:59;3.90;99.90
52125;DHT22;38119;52.710;6.398;2023-04-03T08:37:25;4.00;99.90
52125;DHT22;38119;52.710;6.398;2023-04-03T08:39:51;4.00;99.90
52125;DHT22;38119;52.710;6.398;2023-04-03T08:47:40;4.10;99.90
52125;DHT22;38119;52.710;6.398;2023-04-03T08:50:15;4.20;99.90
52125;DHT22;38119;52.710;6.398;2023-04-03T08:52:48;4.20;99.90
52125;DHT22;38119;52.710;6.398;2023-04-03T08:55:50;4.30;99.90
52125;DHT22;38119;52.710;6.398;2023-04-03T08:58:25;4.30;99.90
52125;DHT22;38119;52.710;6.398;2023-04-03T09:00:55;4.30;99.90
52125;DHT22;38119;52.710;6.398;2023-04-03T09:03:22;4.40;99.90
52125;DHT22;38119;52.710;6.398;2023-04-03T09:06:00;4.50;99.90
52125;DHT22;38119;52.710;6.398;2023-04-03T09:08:37;4.60;99.90
52125;DHT22;38119;52.710;6.398;2023-04-03T09:11:24;4.70;99.90
52125;DHT22;38119;52.710;6.398;2023-04-03T09:14:09;4.90;99.90
52125;DHT22;38119;52.710;6.398;2023-04-03T09:16:52;5.10;99.90
52125;DHT22;38119;52.710;6.398;2023-04-03T09:19:52;5.30;99.90
52125;DHT22;38119;52.710;6.398;2023-04-03T09:22:23;5.60;99.90
52125;DHT22;38119;52.710;6.398;2023-04-03T09:24:55;5.80;99.90
52125;DHT22;38119;52.710;6.398;2023-04-03T09:27:22;6.10;99.90
52125;DHT22;38119;52.710;6.398;2023-04-03T09:29:49;6.40;99.90
52125;DHT22;38119;52.710;6.398;2023-04-03T09:32:25;6.70;99.90
52125;DHT22;38119;52.710;6.398;2023-04-03T09:34:52;7.00;99.90
52125;DHT22;38119;52.710;6.398;2023-04-03T09:37:40;7.20;99.90
52125;DHT22;38119;52.710;6.398;2023-04-03T09:42:56;7.80;99.90
52125;DHT22;38119;52.710;6.398;2023-04-03T09:48:05;8.20;99.90
52125;DHT22;38119;52.710;6.398;2023-04-03T09:50:33;8.40;99.90
52125;DHT22;38119;52.710;6.398;2023-04-03T09:53:05;8.60;99.90
52125;DHT22;38119;52.710;6.398;2023-04-03T09:55:31;8.90;99.90
52125;DHT22;38119;52.710;6.398;2023-04-03T09:58:04;9.00;98.70
52125;DHT22;38119;52.710;6.398;2023-04-03T10:00:36;9.20;98.10
52125;DHT22;38119;52.710;6.398;2023-04-03T10:03:03;9.30;96.70
52125;DHT22;38119;52.710;6.398;2023-04-03T10:05:38;9.40;97.60
52125;DHT22;38119;52.710;6.398;2023-04-03T10:10:43;9.70;94.80
52125;DHT22;38119;52.710;6.398;2023-04-03T10:13:17;9.80;93.00
52125;DHT22;38119;52.710;6.398;2023-04-03T10:15:55;10.00;93.00
52125;DHT22;38119;52.710;6.398;2023-04-03T10:18:29;10.20;94.50
52125;DHT22;38119;52.710;6.398;2023-04-03T10:21:04;10.30;93.30
52125;DHT22;38119;52.710;6.398;2023-04-03T10:23:44;10.40;92.90
52125;DHT22;38119;52.710;6.398;2023-04-03T10:40:12;11.20;86.50
52125;DHT22;38119;52.710;6.398;2023-04-03T10:42:53;11.20;83.60
52125;DHT22;38119;52.710;6.398;2023-04-03T10:45:30;11.30;85.60
52125;DHT22;38119;52.710;6.398;2023-04-03T10:48:11;11.50;84.60
52125;DHT22;38119;52.710;6.398;2023-04-03T10:51:00;11.60;86.90
52125;DHT22;38119;52.710;6.398;2023-04-03T10:56:09;11.60;83.00
52125;DHT22;38119;52.710;6.398;2023-04-03T10:58:58;11.60;83.00
52125;DHT22;38119;52.710;6.398;2023-04-03T11:01:31;11.60;80.90
52125;DHT22;38119;52.710;6.398;2023-04-03T11:03:59;11.70;83.80
52125;DHT22;38119;52.710;6.398;2023-04-03T11:06:32;11.80;84.30
52125;DHT22;38119;52.710;6.398;2023-04-03T11:09:23;12.00;80.20
52125;DHT22;38119;52.710;6.398;2023-04-03T11:11:55;11.90;79.00
52125;DHT22;38119;52.710;6.398;2023-04-03T11:14:30;12.00;82.20
52125;DHT22;38119;52.710;6.398;2023-04-03T11:17:11;12.10;79.30
52125;DHT22;38119;52.710;6.398;2023-04-03T11:19:47;12.10;81.10
52125;DHT22;38119;52.710;6.398;2023-04-03T11:22:29;12.20;80.60
52125;DHT22;38119;52.710;6.398;2023-04-03T11:25:23;12.20;79.80
52125;DHT22;38119;52.710;6.398;2023-04-03T11:27:51;12.20;75.60
52125;DHT22;38119;52.710;6.398;2023-04-03T11:35:36;12.30;76.00
52125;DHT22;38119;52.710;6.398;2023-04-03T11:38:04;12.40;79.70
52125;DHT22;38119;52.710;6.398;2023-04-03T11:40:33;12.40;79.80
52125;DHT22;38119;52.710;6.398;2023-04-03T11:43:21;12.50;79.50
52125;DHT22;38119;52.710;6.398;2023-04-03T11:50:58;12.50;77.80
52125;DHT22;38119;52.710;6.398;2023-04-03T11:53:37;12.60;77.60
52125;DHT22;38119;52.710;6.398;2023-04-03T11:56:26;12.70;76.20
52125;DHT22;38119;52.710;6.398;2023-04-03T12:01:57;12.70;73.00
52125;DHT22;38119;52.710;6.398;2023-04-03T12:04:26;12.60;72.10
52125;DHT22;38119;52.710;6.398;2023-04-03T12:06:59;12.70;74.30
52125;DHT22;38119;52.710;6.398;2023-04-03T12:11:55;12.70;74.10
52125;DHT22;38119;52.710;6.398;2023-04-03T12:14:23;12.70;75.20
52125;DHT22;38119;52.710;6.398;2023-04-03T12:16:53;12.70;75.30
52125;DHT22;38119;52.710;6.398;2023-04-03T12:19:37;12.70;76.80
52125;DHT22;38119;52.710;6.398;2023-04-03T12:22:08;12.80;75.30
52125;DHT22;38119;52.710;6.398;2023-04-03T12:24:39;12.70;74.60
52125;DHT22;38119;52.710;6.398;2023-04-03T12:27:22;12.70;74.80
52125;DHT22;38119;52.710;6.398;2023-04-03T12:30:04;12.70;74.80
52125;DHT22;38119;52.710;6.398;2023-04-03T12:40:36;12.90;73.20
52125;DHT22;38119;52.710;6.398;2023-04-03T12:43:25;12.90;74.20
52125;DHT22;38119;52.710;6.398;2023-04-03T12:46:11;12.90;72.70
52125;DHT22;38119;52.710;6.398;2023-04-03T12:48:58;12.90;73.30
52125;DHT22;38119;52.710;6.398;2023-04-03T12:51:41;12.90;74.00
52125;DHT22;38119;52.710;6.398;2023-04-03T12:54:20;12.90;71.50
52125;DHT22;38119;52.710;6.398;2023-04-03T12:56:47;12.90;72.90
52125;DHT22;38119;52.710;6.398;2023-04-03T12:59:26;12.90;74.30
52125;DHT22;38119;52.710;6.398;2023-04-03T13:02:00;13.00;73.10
52125;DHT22;38119;52.710;6.398;2023-04-03T13:04:31;13.00;72.50
52125;DHT22;38119;52.710;6.398;2023-04-03T13:06:57;13.00;73.00
52125;DHT22;38119;52.710;6.398;2023-04-03T13:09:26;12.90;72.80
52125;DHT22;38119;52.710;6.398;2023-04-03T13:11:59;12.80;73.10
52125;DHT22;38119;52.710;6.398;2023-04-03T13:14:26;12.90;73.60
52125;DHT22;38119;52.710;6.398;2023-04-03T13:17:14;12.80;73.00
52125;DHT22;38119;52.710;6.398;2023-04-03T13:19:41;12.90;71.60
52125;DHT22;38119;52.710;6.398;2023-04-03T13:24:58;12.90;71.70
52125;DHT22;38119;52.710;6.398;2023-04-03T13:27:24;12.90;72.40
52125;DHT22;38119;52.710;6.398;2023-04-03T13:29:57;12.90;73.20
52125;DHT22;38119;52.710;6.398;2023-04-03T13:32:23;13.00;73.60
52125;DHT22;38119;52.710;6.398;2023-04-03T13:34:50;13.10;73.50
52125;DHT22;38119;52.710;6.398;2023-04-03T13:37:21;13.10;73.90
52125;DHT22;38119;52.710;6.398;2023-04-03T13:40:17;13.10;71.40
52125;DHT22;38119;52.710;6.398;2023-04-03T13:42:42;13.10;71.80
52125;DHT22;38119;52.710;6.398;2023-04-03T13:47:44;13.00;72.20
52125;DHT22;38119;52.710;6.398;2023-04-03T13:53:08;13.10;72.30
52125;DHT22;38119;52.710;6.398;2023-04-03T13:55:39;13.10;72.40
52125;DHT22;38119;52.710;6.398;2023-04-03T13:58:25;13.10;73.30
52125;DHT22;38119;52.710;6.398;2023-04-03T14:03:52;13.20;72.80
52125;DHT22;38119;52.710;6.398;2023-04-03T14:06:18;13.20;73.40
52125;DHT22;38119;52.710;6.398;2023-04-03T14:08:44;13.30;73.20
52125;DHT22;38119;52.710;6.398;2023-04-03T14:11:37;13.90;72.00
52125;DHT22;38119;52.710;6.398;2023-04-03T14:14:11;13.20;71.10
52125;DHT22;38119;52.710;6.398;2023-04-03T14:16:41;13.10;69.30
52125;DHT22;38119;52.710;6.398;2023-04-03T14:19:09;13.00;71.00
52125;DHT22;38119;52.710;6.398;2023-04-03T14:21:39;13.00;71.80
52125;DHT22;38119;52.710;6.398;2023-04-03T14:24:05;13.00;71.80
52125;DHT22;38119;52.710;6.398;2023-04-03T14:26:31;13.00;72.00
52125;DHT22;38119;52.710;6.398;2023-04-03T14:28:57;13.40;72.30
52125;DHT22;38119;52.710;6.398;2023-04-03T14:31:23;13.10;72.10
52125;DHT22;38119;52.710;6.398;2023-04-03T14:33:49;13.10;71.60
52125;DHT22;38119;52.710;6.398;2023-04-03T14:36:25;13.00;70.90
52125;DHT22;38119;52.710;6.398;2023-04-03T14:38:53;13.00;71.10
52125;DHT22;38119;52.710;6.398;2023-04-03T14:41:22;13.20;70.70
52125;DHT22;38119;52.710;6.398;2023-04-03T14:43:48;12.90;71.00
52125;DHT22;38119;52.710;6.398;2023-04-03T14:48:47;12.90;71.40
52125;DHT22;38119;52.710;6.398;2023-04-03T14:51:14;12.80;71.50
52125;DHT22;38119;52.710;6.398;2023-04-03T14:53:42;12.80;71.90
52125;DHT22;38119;52.710;6.398;2023-04-03T14:56:29;12.90;72.40
52125;DHT22;38119;52.710;6.398;2023-04-03T14:58:57;12.90;72.20
52125;DHT22;38119;52.710;6.398;2023-04-03T15:01:23;12.90;72.00
52125;DHT22;38119;52.710;6.398;2023-04-03T15:03:49;13.70;72.40
52125;DHT22;38119;52.710;6.398;2023-04-03T15:06:15;12.90;71.60
52125;DHT22;38119;52.710;6.398;2023-04-03T15:08:42;12.90;72.50
52125;DHT22;38119;52.710;6.398;2023-04-03T15:11:12;12.90;73.10
52125;DHT22;38119;52.710;6.398;2023-04-03T15:13:38;12.90;72.50
52125;DHT22;38119;52.710;6.398;2023-04-03T15:16:05;12.80;72.70
52125;DHT22;38119;52.710;6.398;2023-04-03T15:18:37;12.80;72.50
52125;DHT22;38119;52.710;6.398;2023-04-03T15:21:03;13.50;72.40
52125;DHT22;38119;52.710;6.398;2023-04-03T15:23:29;12.80;72.60
52125;DHT22;38119;52.710;6.398;2023-04-03T15:25:55;12.90;73.20
52125;DHT22;38119;52.710;6.398;2023-04-03T15:30:54;12.90;72.60
52125;DHT22;38119;52.710;6.398;2023-04-03T15:33:20;12.70;72.30
52125;DHT22;38119;52.710;6.398;2023-04-03T15:35:46;13.50;72.40
52125;DHT22;38119;52.710;6.398;2023-04-03T15:38:11;12.60;71.70
52125;DHT22;38119;52.710;6.398;2023-04-03T15:40:37;13.40;72.20
52125;DHT22;38119;52.710;6.398;2023-04-03T15:43:05;12.20;71.60
52125;DHT22;38119;52.710;6.398;2023-04-03T15:45:32;12.50;71.60
52125;DHT22;38119;52.710;6.398;2023-04-03T15:47:59;12.40;71.70
52125;DHT22;38119;52.710;6.398;2023-04-03T15:50:25;12.70;71.10
52125;DHT22;38119;52.710;6.398;2023-04-03T15:52:51;11.90;70.70
52125;DHT22;38119;52.710;6.398;2023-04-03T15:55:24;13.00;72.00
52125;DHT22;38119;52.710;6.398;2023-04-03T15:57:50;12.20;71.80
52125;DHT22;38119;52.710;6.398;2023-04-03T16:00:16;12.90;72.60
52125;DHT22;38119;52.710;6.398;2023-04-03T16:02:44;12.10;71.80
52125;DHT22;38119;52.710;6.398;2023-04-03T16:05:10;12.70;72.70
52125;DHT22;38119;52.710;6.398;2023-04-03T16:07:38;12.00;72.10
52125;DHT22;38119;52.710;6.398;2023-04-03T16:10:05;12.00;71.70
52125;DHT22;38119;52.710;6.398;2023-04-03T16:12:31;11.90;71.90
52125;DHT22;38119;52.710;6.398;2023-04-03T16:14:56;11.90;70.60
52125;DHT22;38119;52.710;6.398;2023-04-03T16:17:22;12.70;72.40
52125;DHT22;38119;52.710;6.398;2023-04-03T16:19:48;11.90;71.50
52125;DHT22;38119;52.710;6.398;2023-04-03T16:22:13;12.60;72.10
52125;DHT22;38119;52.710;6.398;2023-04-03T16:24:39;11.70;72.00
52125;DHT22;38119;52.710;6.398;2023-04-03T16:27:05;11.80;72.30
52125;DHT22;38119;52.710;6.398;2023-04-03T16:29:31;11.90;72.10
52125;DHT22;38119;52.710;6.398;2023-04-03T16:31:57;11.90;71.90
52125;DHT22;38119;52.710;6.398;2023-04-03T16:34:23;11.80;71.80
52125;DHT22;38119;52.710;6.398;2023-04-03T16:36:51;11.50;71.40
52125;DHT22;38119;52.710;6.398;2023-04-03T16:39:18;12.00;72.00
52125;DHT22;38119;52.710;6.398;2023-04-03T16:41:43;12.40;72.60
52125;DHT22;38119;52.710;6.398;2023-04-03T16:44:10;11.60;72.70
52125;DHT22;38119;52.710;6.398;2023-04-03T16:46:39;12.00;72.50
52125;DHT22;38119;52.710;6.398;2023-04-03T16:49:05;11.80;71.80
52125;DHT22;38119;52.710;6.398;2023-04-03T16:51:30;11.30;72.20
52125;DHT22;38119;52.710;6.398;2023-04-03T16:53:57;11.10;71.60
52125;DHT22;38119;52.710;6.398;2023-04-03T16:56:23;11.00;72.00
52125;DHT22;38119;52.710;6.398;2023-04-03T16:58:49;10.80;71.80
52125;DHT22;38119;52.710;6.398;2023-04-03T17:01:17;10.80;73.00
52125;DHT22;38119;52.710;6.398;2023-04-03T17:03:43;11.90;74.00
52125;DHT22;38119;52.710;6.398;2023-04-03T17:06:11;11.70;74.40
52125;DHT22;38119;52.710;6.398;2023-04-03T17:08:46;11.40;74.20
52125;DHT22;38119;52.710;6.398;2023-04-03T17:11:13;11.00;74.10